sensor_id;sensor_type;location;lat;lon;timestamp;pressure;altitude;pressure_sealevel;temperature;humidity
72330;BME280;69154;52.076;5.110;2023-08-24T00:00:21;101891.34;;;18.98;30.29
72330;BME280;69154;52.076;5.110;2023-08-24T00:02:47;101883.54;;;18.39;30.79
72330;BME280;69154;52.076;5.110;2023-08-24T00:05:13;101886.22;;;19.16;30.14
72330;BME280;69154;52.076;5.110;2023-08-24T00:07:37;101886.63;;;19.26;30.07
72330;BME280;69154;52.076;5.110;2023-08-24T00:10:04;101884.16;;;20.08;29.32
72330;BME280;69154;52.076;5.110;2023-08-24T00:12:29;101881.94;;;18.54;29.68
72330;BME280;69154;52.076;5.110;2023-08-24T00:14:55;101886.32;;;19.95;29.17
72330;BME280;69154;52.076;5.110;2023-08-24T00:17:21;101883.94;;;20.49;28.12
72330;BME280;69154;52.076;5.110;2023-08-24T00:19:47;101883.65;;;20.09;28.06
72330;BME280;69154;52.076;5.110;2023-08-24T00:22:13;101875.40;;;20.15;28.10
72330;BME280;69154;52.076;5.110;2023-08-24T00:24:38;101860.41;;;20.54;28.82
72330;BME280;69154;52.076;5.110;2023-08-24T00:27:04;101838.58;;;19.80;29.10
72330;BME280;69154;52.076;5.110;2023-08-24T00:29:30;101844.11;;;18.47;30.06
72330;BME280;69154;52.076;5.110;2023-08-24T00:31:56;101855.17;;;19.31;29.97
72330;BME280;69154;52.076;5.110;2023-08-24T00:34:21;101854.62;;;19.73;29.31
72330;BME280;69154;52.076;5.110;2023-08-24T00:36:47;101858.76;;;19.86;28.71
72330;BME280;69154;52.076;5.110;2023-08-24T00:39:13;101853.86;;;19.69;28.48
72330;BME280;69154;52.076;5.110;2023-08-24T00:41:39;101845.40;;;20.03;28.64
72330;BME280;69154;52.076;5.110;2023-08-24T00:44:05;101843.97;;;19.95;28.98
72330;BME280;69154;52.076;5.110;2023-08-24T00:46:30;101839.13;;;20.40;28.29
72330;BME280;69154;52.076;5.110;2023-08-24T00:48:56;101837.03;;;19.34;29.33
72330;BME280;69154;52.076;5.110;2023-08-24T00:51:22;101844.69;;;19.46;29.19
72330;BME280;69154;52.076;5.110;2023-08-24T00:53:48;101853.74;;;19.08;29.42
72330;BME280;69154;52.076;5.110;2023-08-24T00:56:14;101865.17;;;20.35;28.41
72330;BME280;69154;52.076;5.110;2023-08-24T00:58:40;101860.90;;;19.91;28.21
72330;BME280;69154;52.076;5.110;2023-08-24T01:01:05;101851.16;;;19.74;28.64
72330;BME280;69154;52.076;5.110;2023-08-24T01:03:31;101845.01;;;19.37;28.83
72330;BME280;69154;52.076;5.110;2023-08-24T01:05:57;101850.16;;;19.52;28.80
72330;BME280;69154;52.076;5.110;2023-08-24T01:08:23;101853.31;;;19.70;28.67
72330;BME280;69154;52.076;5.110;2023-08-24T01:10:55;101845.24;;;18.89;29.42
72330;BME280;69154;52.076;5.110;2023-08-24T01:13:20;101850.08;;;20.44;28.63
72330;BME280;69154;52.076;5.110;2023-08-24T01:15:47;101854.56;;;19.13;29.11
72330;BME280;69154;52.076;5.110;2023-08-24T01:18:10;101854.52;;;20.50;28.79
72330;BME280;69154;52.076;5.110;2023-08-24T01:20:31;101850.82;;;19.76;28.96
72330;BME280;69154;52.076;5.110;2023-08-24T01:23:04;101840.99;;;19.75;29.30
72330;BME280;69154;52.076;5.110;2023-08-24T01:25:34;101835.85;;;16.64;32.24
72330;BME280;69154;52.076;5.110;2023-08-24T01:27:49;101836.49;;;18.30;30.97
72330;BME280;69154;52.076;5.110;2023-08-24T01:30:15;101847.43;;;18.84;30.47
72330;BME280;69154;52.076;5.110;2023-08-24T01:32:40;101853.58;;;19.41;29.36
72330;BME280;69154;52.076;5.110;2023-08-24T01:35:08;101858.19;;;20.13;28.93
72330;BME280;69154;52.076;5.110;2023-08-24T01:37:32;101858.57;;;19.36;29.16
72330;BME280;69154;52.076;5.110;2023-08-24T01:40:03;101857.18;;;19.74;29.43
72330;BME280;69154;52.076;5.110;2023-08-24T01:42:27;101854.54;;;18.79;29.87
72330;BME280;69154;52.076;5.110;2023-08-24T01:44:51;101850.69;;;18.95;29.95
72330;BME280;69154;52.076;5.110;2023-08-24T01:47:16;101839.15;;;19.54;29.59
72330;BME280;69154;52.076;5.110;2023-08-24T01:49:41;101838.41;;;19.17;29.26
72330;BME280;69154;52.076;5.110;2023-08-24T01:52:07;101839.43;;;19.31;29.89
72330;BME280;69154;52.076;5.110;2023-08-24T01:54:32;101834.21;;;19.26;29.95
72330;BME280;69154;52.076;5.110;2023-08-24T01:56:58;101827.66;;;18.80;30.62
72330;BME280;69154;52.076;5.110;2023-08-24T01:59:24;101828.73;;;18.94;30.56
72330;BME280;69154;52.076;5.110;2023-08-24T02:01:49;101837.28;;;18.78;31.02
72330;BME280;69154;52.076;5.110;2023-08-24T02:04:16;101845.91;;;19.81;30.08
72330;BME280;69154;52.076;5.110;2023-08-24T02:06:41;101851.90;;;20.43;28.50
72330;BME280;69154;52.076;5.110;2023-08-24T02:09:07;101838.71;;;20.78;28.82
72330;BME280;69154;52.076;5.110;2023-08-24T02:11:33;101826.04;;;19.89;29.31
72330;BME280;69154;52.076;5.110;2023-08-24T02:13:58;101823.75;;;19.93;29.41
72330;BME280;69154;52.076;5.110;2023-08-24T02:16:24;101817.76;;;18.74;30.34
72330;BME280;69154;52.076;5.110;2023-08-24T02:18:50;101802.96;;;18.25;30.89
72330;BME280;69154;52.076;5.110;2023-08-24T02:21:16;101781.90;;;18.23;31.44
72330;BME280;69154;52.076;5.110;2023-08-24T02:23:40;101770.26;;;17.60;32.09
72330;BME280;69154;52.076;5.110;2023-08-24T02:26:06;101774.73;;;18.01;32.33
72330;BME280;69154;52.076;5.110;2023-08-24T02:28:32;101774.14;;;18.71;31.45
72330;BME280;69154;52.076;5.110;2023-08-24T02:31:00;101766.65;;;19.67;30.65
72330;BME280;69154;52.076;5.110;2023-08-24T02:33:22;101759.51;;;18.17;31.65
72330;BME280;69154;52.076;5.110;2023-08-24T02:35:47;101750.13;;;19.04;31.48
72330;BME280;69154;52.076;5.110;2023-08-24T02:38:12;101736.56;;;17.69;32.16
72330;BME280;69154;52.076;5.110;2023-08-24T02:40:38;101728.60;;;17.79;31.66
72330;BME280;69154;52.076;5.110;2023-08-24T02:43:04;101727.03;;;18.23;31.58
72330;BME280;69154;52.076;5.110;2023-08-24T02:45:29;101726.68;;;18.06;31.41
72330;BME280;69154;52.076;5.110;2023-08-24T02:47:54;101731.96;;;18.69;31.17
72330;BME280;69154;52.076;5.110;2023-08-24T02:50:19;101731.52;;;19.03;30.99
72330;BME280;69154;52.076;5.110;2023-08-24T02:52:44;101739.28;;;18.75;30.40
72330;BME280;69154;52.076;5.110;2023-08-24T02:55:10;101738.95;;;19.58;30.49
72330;BME280;69154;52.076;5.110;2023-08-24T02:57:35;101736.34;;;17.90;31.25
72330;BME280;69154;52.076;5.110;2023-08-24T03:00:01;101736.46;;;17.85;32.27
72330;BME280;69154;52.076;5.110;2023-08-24T03:02:26;101738.38;;;16.52;33.33
72330;BME280;69154;52.076;5.110;2023-08-24T03:04:51;101734.26;;;15.98;34.59
72330;BME280;69154;52.076;5.110;2023-08-24T03:07:16;101738.11;;;17.40;33.87
72330;BME280;69154;52.076;5.110;2023-08-24T03:09:41;101737.59;;;17.75;32.01
72330;BME280;69154;52.076;5.110;2023-08-24T03:12:07;101734.04;;;17.56;32.86
72330;BME280;69154;52.076;5.110;2023-08-24T03:14:32;101728.99;;;16.40;33.31
72330;BME280;69154;52.076;5.110;2023-08-24T03:16:57;101725.88;;;17.86;32.89
72330;BME280;69154;52.076;5.110;2023-08-24T03:19:22;101721.55;;;17.33;33.10
72330;BME280;69154;52.076;5.110;2023-08-24T03:21:47;101715.60;;;17.50;33.44
72330;BME280;69154;52.076;5.110;2023-08-24T03:24:13;101715.50;;;17.44;34.03
72330;BME280;69154;52.076;5.110;2023-08-24T03:26:38;101710.03;;;17.94;32.33
72330;BME280;69154;52.076;5.110;2023-08-24T03:29:03;101710.92;;;18.58;31.80
72330;BME280;69154;52.076;5.110;2023-08-24T03:31:28;101704.90;;;18.79;31.24
72330;BME280;69154;52.076;5.110;2023-08-24T03:33:53;101699.81;;;17.52;33.09
72330;BME280;69154;52.076;5.110;2023-08-24T03:36:18;101701.43;;;16.53;34.50
72330;BME280;69154;52.076;5.110;2023-08-24T03:38:44;101700.01;;;16.65;33.70
72330;BME280;69154;52.076;5.110;2023-08-24T03:41:10;101701.49;;;17.56;33.45
72330;BME280;69154;52.076;5.110;2023-08-24T03:43:35;101700.45;;;17.84;33.38
72330;BME280;69154;52.076;5.110;2023-08-24T03:46:01;101696.56;;;17.34;33.85
72330;BME280;69154;52.076;5.110;2023-08-24T03:48:26;101688.58;;;17.27;33.08
72330;BME280;69154;52.076;5.110;2023-08-24T03:50:54;101687.37;;;18.60;32.31
72330;BME280;69154;52.076;5.110;2023-08-24T03:53:16;101692.67;;;19.24;31.63
72330;BME280;69154;52.076;5.110;2023-08-24T03:55:42;101694.83;;;19.32;30.90
72330;BME280;69154;52.076;5.110;2023-08-24T03:58:07;101694.19;;;20.28;30.45
72330;BME280;69154;52.076;5.110;2023-08-24T04:00:33;101699.10;;;19.12;31.23
72330;BME280;69154;52.076;5.110;2023-08-24T04:02:58;101696.50;;;18.26;32.10
72330;BME280;69154;52.076;5.110;2023-08-24T04:05:24;101690.75;;;17.00;33.45
72330;BME280;69154;52.076;5.110;2023-08-24T04:07:49;101684.76;;;17.44;33.43
72330;BME280;69154;52.076;5.110;2023-08-24T04:10:15;101686.07;;;18.07;33.10
72330;BME280;69154;52.076;5.110;2023-08-24T04:12:40;101697.20;;;18.27;32.36
72330;BME280;69154;52.076;5.110;2023-08-24T04:15:06;101698.56;;;19.08;31.74
72330;BME280;69154;52.076;5.110;2023-08-24T04:17:31;101700.82;;;19.29;30.91
72330;BME280;69154;52.076;5.110;2023-08-24T04:19:57;101700.86;;;19.13;31.71
72330;BME280;69154;52.076;5.110;2023-08-24T04:22:22;101704.30;;;18.67;32.10
72330;BME280;69154;52.076;5.110;2023-08-24T04:24:47;101706.02;;;19.70;31.60
72330;BME280;69154;52.076;5.110;2023-08-24T04:27:12;101707.28;;;20.34;31.23
72330;BME280;69154;52.076;5.110;2023-08-24T04:29:38;101707.11;;;19.28;31.28
72330;BME280;69154;52.076;5.110;2023-08-24T04:32:04;101711.26;;;19.85;32.01
72330;BME280;69154;52.076;5.110;2023-08-24T04:34:29;101707.98;;;19.54;32.16
72330;BME280;69154;52.076;5.110;2023-08-24T04:36:54;101706.80;;;18.64;33.28
72330;BME280;69154;52.076;5.110;2023-08-24T04:39:20;101708.74;;;18.50;33.50
72330;BME280;69154;52.076;5.110;2023-08-24T04:41:45;101710.32;;;19.21;32.65
72330;BME280;69154;52.076;5.110;2023-08-24T04:44:10;101709.34;;;18.35;33.88
72330;BME280;69154;52.076;5.110;2023-08-24T04:46:35;101709.99;;;17.40;34.08
72330;BME280;69154;52.076;5.110;2023-08-24T04:49:01;101706.18;;;19.56;33.04
72330;BME280;69154;52.076;5.110;2023-08-24T04:51:27;101705.00;;;19.84;32.07
72330;BME280;69154;52.076;5.110;2023-08-24T04:53:52;101701.77;;;19.56;33.19
72330;BME280;69154;52.076;5.110;2023-08-24T04:56:17;101703.98;;;18.43;34.42
72330;BME280;69154;52.076;5.110;2023-08-24T04:58:52;101707.98;;;17.28;34.35
72330;BME280;69154;52.076;5.110;2023-08-24T05:01:08;101707.81;;;19.51;32.97
72330;BME280;69154;52.076;5.110;2023-08-24T05:03:34;101704.56;;;19.22;32.39
72330;BME280;69154;52.076;5.110;2023-08-24T05:06:00;101703.00;;;19.86;32.15
72330;BME280;69154;52.076;5.110;2023-08-24T05:08:25;101701.04;;;19.67;32.09
72330;BME280;69154;52.076;5.110;2023-08-24T05:10:50;101694.67;;;19.64;31.98
72330;BME280;69154;52.076;5.110;2023-08-24T05:13:16;101691.11;;;20.09;31.80
72330;BME280;69154;52.076;5.110;2023-08-24T05:15:42;101686.72;;;19.67;31.65
72330;BME280;69154;52.076;5.110;2023-08-24T05:18:07;101675.08;;;19.17;32.57
72330;BME280;69154;52.076;5.110;2023-08-24T05:20:32;101669.06;;;19.45;32.26
72330;BME280;69154;52.076;5.110;2023-08-24T05:22:58;101668.09;;;21.07;31.35
72330;BME280;69154;52.076;5.110;2023-08-24T05:25:23;101662.34;;;20.03;32.05
72330;BME280;69154;52.076;5.110;2023-08-24T05:27:49;101660.46;;;19.01;33.61
72330;BME280;69154;52.076;5.110;2023-08-24T05:30:14;101657.31;;;19.73;33.21
72330;BME280;69154;52.076;5.110;2023-08-24T05:32:39;101652.42;;;18.28;33.67
72330;BME280;69154;52.076;5.110;2023-08-24T05:35:05;101649.49;;;18.29;34.02
72330;BME280;69154;52.076;5.110;2023-08-24T05:37:30;101642.44;;;18.67;33.55
72330;BME280;69154;52.076;5.110;2023-08-24T05:39:55;101632.59;;;17.70;35.26
72330;BME280;69154;52.076;5.110;2023-08-24T05:42:21;101627.51;;;17.57;35.95
72330;BME280;69154;52.076;5.110;2023-08-24T05:44:46;101623.40;;;18.54;35.41
72330;BME280;69154;52.076;5.110;2023-08-24T05:47:12;101624.21;;;17.99;35.19
72330;BME280;69154;52.076;5.110;2023-08-24T05:49:37;101626.08;;;19.39;33.23
72330;BME280;69154;52.076;5.110;2023-08-24T05:52:04;101627.02;;;19.54;33.26
72330;BME280;69154;52.076;5.110;2023-08-24T05:54:29;101627.10;;;18.62;33.68
72330;BME280;69154;52.076;5.110;2023-08-24T05:56:54;101625.02;;;18.87;34.27
72330;BME280;69154;52.076;5.110;2023-08-24T05:59:19;101626.00;;;18.73;35.11
72330;BME280;69154;52.076;5.110;2023-08-24T06:01:45;101623.67;;;18.16;34.35
72330;BME280;69154;52.076;5.110;2023-08-24T06:04:10;101624.99;;;19.64;33.78
72330;BME280;69154;52.076;5.110;2023-08-24T06:06:36;101623.81;;;18.55;33.94
72330;BME280;69154;52.076;5.110;2023-08-24T06:09:02;101626.25;;;19.62;33.51
72330;BME280;69154;52.076;5.110;2023-08-24T06:11:27;101623.01;;;19.62;32.63
72330;BME280;69154;52.076;5.110;2023-08-24T06:13:52;101619.70;;;20.13;32.54
72330;BME280;69154;52.076;5.110;2023-08-24T06:16:18;101611.49;;;19.31;33.50
72330;BME280;69154;52.076;5.110;2023-08-24T06:18:44;101600.00;;;18.80;34.15
72330;BME280;69154;52.076;5.110;2023-08-24T06:21:09;101592.86;;;18.67;34.85
72330;BME280;69154;52.076;5.110;2023-08-24T06:23:34;101589.77;;;18.32;34.34
72330;BME280;69154;52.076;5.110;2023-08-24T06:26:00;101592.74;;;19.62;33.36
72330;BME280;69154;52.076;5.110;2023-08-24T06:28:26;101599.29;;;19.84;32.85
72330;BME280;69154;52.076;5.110;2023-08-24T06:30:51;101601.37;;;20.26;32.69
72330;BME280;69154;52.076;5.110;2023-08-24T06:33:17;101599.51;;;20.47;32.47
72330;BME280;69154;52.076;5.110;2023-08-24T06:35:43;101595.71;;;20.20;33.10
72330;BME280;69154;52.076;5.110;2023-08-24T06:38:08;101587.52;;;20.41;32.42
72330;BME280;69154;52.076;5.110;2023-08-24T06:40:34;101577.87;;;19.73;32.11
72330;BME280;69154;52.076;5.110;2023-08-24T06:42:59;101572.88;;;20.71;31.80
72330;BME280;69154;52.076;5.110;2023-08-24T06:45:24;101570.98;;;20.42;31.93
72330;BME280;69154;52.076;5.110;2023-08-24T06:47:49;101567.12;;;20.21;31.95
72330;BME280;69154;52.076;5.110;2023-08-24T06:50:16;101556.52;;;21.05;31.70
72330;BME280;69154;52.076;5.110;2023-08-24T06:52:41;101561.42;;;21.40;30.24
72330;BME280;69154;52.076;5.110;2023-08-24T06:55:08;101567.64;;;24.00;28.78
72330;BME280;69154;52.076;5.110;2023-08-24T06:57:31;101565.95;;;22.31;29.05
72330;BME280;69154;52.076;5.110;2023-08-24T06:59:57;101568.12;;;24.02;27.98
72330;BME280;69154;52.076;5.110;2023-08-24T07:02:22;101572.64;;;23.46;27.72
72330;BME280;69154;52.076;5.110;2023-08-24T07:04:48;101574.18;;;24.56;27.17
72330;BME280;69154;52.076;5.110;2023-08-24T07:07:13;101556.67;;;23.91;27.79
72330;BME280;69154;52.076;5.110;2023-08-24T07:09:38;101549.33;;;22.63;28.59
72330;BME280;69154;52.076;5.110;2023-08-24T07:12:05;101556.48;;;24.41;27.59
72330;BME280;69154;52.076;5.110;2023-08-24T07:14:29;101555.24;;;24.17;26.87
72330;BME280;69154;52.076;5.110;2023-08-24T07:16:54;101553.33;;;24.73;26.63
72330;BME280;69154;52.076;5.110;2023-08-24T07:19:20;101547.01;;;23.21;27.72
72330;BME280;69154;52.076;5.110;2023-08-24T07:21:45;101555.30;;;23.75;27.15
72330;BME280;69154;52.076;5.110;2023-08-24T07:24:11;101559.21;;;24.85;26.51
72330;BME280;69154;52.076;5.110;2023-08-24T07:26:36;101564.13;;;24.05;26.58
72330;BME280;69154;52.076;5.110;2023-08-24T07:29:01;101568.82;;;23.76;26.79
72330;BME280;69154;52.076;5.110;2023-08-24T07:31:26;101567.97;;;23.92;26.35
72330;BME280;69154;52.076;5.110;2023-08-24T07:33:52;101566.27;;;24.12;26.15
72330;BME280;69154;52.076;5.110;2023-08-24T07:36:18;101560.71;;;25.47;25.70
72330;BME280;69154;52.076;5.110;2023-08-24T07:38:44;101556.41;;;25.39;25.44
72330;BME280;69154;52.076;5.110;2023-08-24T07:41:08;101550.20;;;25.09;25.22
72330;BME280;69154;52.076;5.110;2023-08-24T07:43:34;101552.09;;;24.84;25.46
72330;BME280;69154;52.076;5.110;2023-08-24T07:46:00;101554.41;;;25.49;25.25
72330;BME280;69154;52.076;5.110;2023-08-24T07:48:25;101553.00;;;24.52;25.29
72330;BME280;69154;52.076;5.110;2023-08-24T07:50:50;101552.52;;;24.42;25.83
72330;BME280;69154;52.076;5.110;2023-08-24T07:53:16;101555.17;;;24.93;25.38
72330;BME280;69154;52.076;5.110;2023-08-24T07:55:42;101562.96;;;24.50;25.29
72330;BME280;69154;52.076;5.110;2023-08-24T07:58:06;101557.94;;;25.95;24.26
72330;BME280;69154;52.076;5.110;2023-08-24T08:00:32;101554.79;;;27.65;23.64
72330;BME280;69154;52.076;5.110;2023-08-24T08:02:57;101549.44;;;26.29;24.46
72330;BME280;69154;52.076;5.110;2023-08-24T08:05:24;101551.77;;;27.37;23.64
72330;BME280;69154;52.076;5.110;2023-08-24T08:07:48;101541.24;;;27.83;22.92
72330;BME280;69154;52.076;5.110;2023-08-24T08:10:15;101533.93;;;28.75;22.31
72330;BME280;69154;52.076;5.110;2023-08-24T08:12:39;101532.72;;;26.22;23.74
72330;BME280;69154;52.076;5.110;2023-08-24T08:15:05;101528.22;;;27.72;23.46
72330;BME280;69154;52.076;5.110;2023-08-24T08:17:30;101533.44;;;26.99;23.26
72330;BME280;69154;52.076;5.110;2023-08-24T08:19:55;101527.28;;;27.84;23.08
72330;BME280;69154;52.076;5.110;2023-08-24T08:22:21;101526.27;;;28.07;22.75
72330;BME280;69154;52.076;5.110;2023-08-24T08:24:46;101528.64;;;28.28;22.54
72330;BME280;69154;52.076;5.110;2023-08-24T08:27:11;101530.58;;;28.52;22.50
72330;BME280;69154;52.076;5.110;2023-08-24T08:29:36;101524.27;;;28.50;21.63
72330;BME280;69154;52.076;5.110;2023-08-24T08:32:02;101520.40;;;28.59;22.18
72330;BME280;69154;52.076;5.110;2023-08-24T08:34:27;101518.06;;;27.53;23.30
72330;BME280;69154;52.076;5.110;2023-08-24T08:36:52;101521.00;;;26.68;23.60
72330;BME280;69154;52.076;5.110;2023-08-24T08:39:18;101516.89;;;27.20;23.06
72330;BME280;69154;52.076;5.110;2023-08-24T08:41:44;101504.29;;;27.57;22.63
72330;BME280;69154;52.076;5.110;2023-08-24T08:44:13;101495.97;;;27.02;23.50
72330;BME280;69154;52.076;5.110;2023-08-24T08:46:35;101491.08;;;26.41;24.00
72330;BME280;69154;52.076;5.110;2023-08-24T08:49:02;101479.90;;;27.98;23.00
72330;BME280;69154;52.076;5.110;2023-08-24T08:51:26;101471.12;;;28.44;22.90
72330;BME280;69154;52.076;5.110;2023-08-24T08:53:51;101470.36;;;27.54;23.04
72330;BME280;69154;52.076;5.110;2023-08-24T08:56:17;101464.50;;;28.93;22.16
72330;BME280;69154;52.076;5.110;2023-08-24T08:58:43;101458.74;;;28.73;22.69
72330;BME280;69154;52.076;5.110;2023-08-24T09:01:08;101451.55;;;29.02;22.50
72330;BME280;69154;52.076;5.110;2023-08-24T09:03:34;101446.70;;;27.77;22.65
72330;BME280;69154;52.076;5.110;2023-08-24T09:06:00;101442.58;;;26.63;24.08
72330;BME280;69154;52.076;5.110;2023-08-24T09:08:26;101440.46;;;27.46;23.62
72330;BME280;69154;52.076;5.110;2023-08-24T09:10:50;101441.55;;;27.77;23.48
72330;BME280;69154;52.076;5.110;2023-08-24T09:13:17;101439.55;;;25.86;25.64
72330;BME280;69154;52.076;5.110;2023-08-24T09:15:41;101447.54;;;26.55;25.15
72330;BME280;69154;52.076;5.110;2023-08-24T09:18:06;101442.33;;;27.51;24.15
72330;BME280;69154;52.076;5.110;2023-08-24T09:20:31;101440.59;;;27.22;24.04
72330;BME280;69154;52.076;5.110;2023-08-24T09:22:58;101444.83;;;29.67;21.97
72330;BME280;69154;52.076;5.110;2023-08-24T09:25:23;101440.39;;;30.68;20.41
72330;BME280;69154;52.076;5.110;2023-08-24T09:27:56;101437.77;;;30.83;20.60
72330;BME280;69154;52.076;5.110;2023-08-24T09:30:14;101439.05;;;29.11;22.36
72330;BME280;69154;52.076;5.110;2023-08-24T09:32:39;101432.88;;;28.35;22.56
72330;BME280;69154;52.076;5.110;2023-08-24T09:35:07;101433.07;;;28.93;22.47
72330;BME280;69154;52.076;5.110;2023-08-24T09:37:31;101432.80;;;29.13;22.05
72330;BME280;69154;52.076;5.110;2023-08-24T09:40:01;101431.53;;;29.63;21.72
72330;BME280;69154;52.076;5.110;2023-08-24T09:42:24;101428.50;;;31.04;20.79
72330;BME280;69154;52.076;5.110;2023-08-24T09:44:46;101432.32;;;32.25;19.71
72330;BME280;69154;52.076;5.110;2023-08-24T09:47:12;101431.49;;;32.97;19.09
72330;BME280;69154;52.076;5.110;2023-08-24T09:49:37;101429.19;;;29.58;20.54
72330;BME280;69154;52.076;5.110;2023-08-24T09:52:07;101430.78;;;30.66;20.96
72330;BME280;69154;52.076;5.110;2023-08-24T09:54:30;101430.80;;;28.98;21.53
72330;BME280;69154;52.076;5.110;2023-08-24T09:56:55;101430.62;;;30.78;20.33
72330;BME280;69154;52.076;5.110;2023-08-24T09:59:19;101433.06;;;31.19;19.99
72330;BME280;69154;52.076;5.110;2023-08-24T10:01:45;101437.36;;;30.99;20.01
72330;BME280;69154;52.076;5.110;2023-08-24T10:04:09;101443.66;;;31.50;20.40
72330;BME280;69154;52.076;5.110;2023-08-24T10:06:36;101453.11;;;30.66;20.37
72330;BME280;69154;52.076;5.110;2023-08-24T10:09:02;101465.85;;;30.19;21.26
72330;BME280;69154;52.076;5.110;2023-08-24T10:11:28;101467.43;;;29.29;21.27
72330;BME280;69154;52.076;5.110;2023-08-24T10:13:58;101467.78;;;29.65;21.34
72330;BME280;69154;52.076;5.110;2023-08-24T10:16:17;101469.25;;;29.97;21.49
72330;BME280;69154;52.076;5.110;2023-08-24T10:18:42;101459.16;;;29.41;22.37
72330;BME280;69154;52.076;5.110;2023-08-24T10:21:07;101455.83;;;29.04;22.56
72330;BME280;69154;52.076;5.110;2023-08-24T10:23:34;101455.80;;;28.91;22.95
72330;BME280;69154;52.076;5.110;2023-08-24T10:25:59;101450.99;;;28.51;23.22
72330;BME280;69154;52.076;5.110;2023-08-24T10:28:24;101449.58;;;29.25;22.85
72330;BME280;69154;52.076;5.110;2023-08-24T10:30:51;101442.28;;;28.94;22.93
72330;BME280;69154;52.076;5.110;2023-08-24T10:33:16;101438.20;;;29.16;23.24
72330;BME280;69154;52.076;5.110;2023-08-24T10:35:42;101434.80;;;27.60;24.02
72330;BME280;69154;52.076;5.110;2023-08-24T10:38:07;101429.92;;;28.40;24.81
72330;BME280;69154;52.076;5.110;2023-08-24T10:40:33;101424.84;;;28.35;25.14
72330;BME280;69154;52.076;5.110;2023-08-24T10:43:02;101423.49;;;28.08;25.66
72330;BME280;69154;52.076;5.110;2023-08-24T10:45:23;101423.10;;;28.68;25.27
72330;BME280;69154;52.076;5.110;2023-08-24T10:47:52;101420.68;;;28.36;25.36
72330;BME280;69154;52.076;5.110;2023-08-24T10:50:15;101410.61;;;29.98;24.54
72330;BME280;69154;52.076;5.110;2023-08-24T10:52:43;101401.47;;;29.20;24.29
72330;BME280;69154;52.076;5.110;2023-08-24T10:55:21;101400.20;;;30.32;24.21
72330;BME280;69154;52.076;5.110;2023-08-24T10:57:35;101401.41;;;29.52;24.16
72330;BME280;69154;52.076;5.110;2023-08-24T10:59:59;101401.85;;;29.10;24.97
72330;BME280;69154;52.076;5.110;2023-08-24T11:02:23;101393.83;;;29.95;24.50
72330;BME280;69154;52.076;5.110;2023-08-24T11:05:21;101389.69;;;29.60;24.03
72330;BME280;69154;52.076;5.110;2023-08-24T11:07:16;101391.07;;;30.97;23.06
72330;BME280;69154;52.076;5.110;2023-08-24T11:09:46;101386.93;;;31.17;22.63
72330;BME280;69154;52.076;5.110;2023-08-24T11:12:04;101376.85;;;31.01;22.68
72330;BME280;69154;52.076;5.110;2023-08-24T11:14:30;101373.20;;;31.99;22.04
72330;BME280;69154;52.076;5.110;2023-08-24T11:16:57;101374.13;;;32.57;22.36
72330;BME280;69154;52.076;5.110;2023-08-24T11:19:21;101378.99;;;32.86;21.23
72330;BME280;69154;52.076;5.110;2023-08-24T11:21:46;101378.85;;;32.47;20.67
72330;BME280;69154;52.076;5.110;2023-08-24T11:24:12;101371.57;;;32.80;20.77
72330;BME280;69154;52.076;5.110;2023-08-24T11:26:39;101365.21;;;33.07;20.22
72330;BME280;69154;52.076;5.110;2023-08-24T11:29:04;101351.87;;;33.35;20.42
72330;BME280;69154;52.076;5.110;2023-08-24T11:31:28;101339.17;;;32.88;20.32
72330;BME280;69154;52.076;5.110;2023-08-24T11:33:54;101333.17;;;33.04;20.69
72330;BME280;69154;52.076;5.110;2023-08-24T11:36:19;101341.08;;;33.30;20.68
72330;BME280;69154;52.076;5.110;2023-08-24T11:38:44;101345.47;;;33.15;19.95
72330;BME280;69154;52.076;5.110;2023-08-24T11:41:12;101343.00;;;33.62;20.17
72330;BME280;69154;52.076;5.110;2023-08-24T11:43:35;101340.56;;;32.98;20.12
72330;BME280;69154;52.076;5.110;2023-08-24T11:46:00;101339.08;;;31.93;21.20
72330;BME280;69154;52.076;5.110;2023-08-24T11:48:26;101344.27;;;33.84;20.34
72330;BME280;69154;52.076;5.110;2023-08-24T11:50:51;101347.01;;;34.89;19.25
72330;BME280;69154;52.076;5.110;2023-08-24T11:53:17;101349.47;;;35.85;18.93
72330;BME280;69154;52.076;5.110;2023-08-24T11:55:42;101351.73;;;34.56;18.41
72330;BME280;69154;52.076;5.110;2023-08-24T11:58:14;101355.24;;;36.51;18.16
72330;BME280;69154;52.076;5.110;2023-08-24T12:00:33;101358.74;;;38.13;17.12
72330;BME280;69154;52.076;5.110;2023-08-24T12:02:59;101355.64;;;39.45;15.74
72330;BME280;69154;52.076;5.110;2023-08-24T12:05:25;101338.84;;;39.13;15.83
72330;BME280;69154;52.076;5.110;2023-08-24T12:07:49;101324.31;;;40.06;14.97
72330;BME280;69154;52.076;5.110;2023-08-24T12:10:14;101311.08;;;40.15;14.51
72330;BME280;69154;52.076;5.110;2023-08-24T12:12:39;101304.14;;;38.14;15.16
72330;BME280;69154;52.076;5.110;2023-08-24T12:15:04;101293.10;;;40.18;14.50
72330;BME280;69154;52.076;5.110;2023-08-24T12:17:29;101283.26;;;39.83;14.05
72330;BME280;69154;52.076;5.110;2023-08-24T12:19:58;101280.33;;;37.36;15.31
72330;BME280;69154;52.076;5.110;2023-08-24T12:22:20;101273.30;;;35.83;16.74
72330;BME280;69154;52.076;5.110;2023-08-24T12:24:45;101266.57;;;34.40;17.13
72330;BME280;69154;52.076;5.110;2023-08-24T12:27:17;101258.11;;;30.31;20.40
72330;BME280;69154;52.076;5.110;2023-08-24T12:29:44;101253.82;;;29.42;21.53
72330;BME280;69154;52.076;5.110;2023-08-24T12:32:02;101251.23;;;31.70;21.02
72330;BME280;69154;52.076;5.110;2023-08-24T12:34:27;101257.95;;;33.03;20.00
72330;BME280;69154;52.076;5.110;2023-08-24T12:36:52;101246.53;;;34.32;19.73
72330;BME280;69154;52.076;5.110;2023-08-24T12:39:18;101236.26;;;32.52;20.03